sensor_id;sensor_type;location;lat;lon;timestamp;pressure;altitude;pressure_sealevel;temperature;humidity
49947;BME280;35839;48.662;13.300;2022-09-03T05:04:36;97230.84;;;8.68;100.00
49947;BME280;35839;48.662;13.300;2022-09-03T05:07:02;97225.34;;;8.71;100.00
49947;BME280;35839;48.662;13.300;2022-09-03T05:09:27;97226.63;;;8.95;100.00
49947;BME280;35839;48.662;13.300;2022-09-03T05:11:53;97224.31;;;9.19;100.00
49947;BME280;35839;48.662;13.300;2022-09-03T05:14:18;97224.19;;;9.21;100.00
49947;BME280;35839;48.662;13.300;2022-09-03T05:16:44;97225.09;;;9.29;100.00
49947;BME280;35839;48.662;13.300;2022-09-03T05:19:09;97216.25;;;9.40;100.00
49947;BME280;35839;48.662;13.300;2022-09-03T05:21:36;97228.06;;;9.62;100.00
49947;BME280;35839;48.662;13.300;2022-09-03T05:24:01;97223.88;;;9.69;100.00
49947;BME280;35839;48.662;13.300;2022-09-03T05:26:29;97215.09;;;9.88;100.00
49947;BME280;35839;48.662;13.300;2022-09-03T05:28:58;97218.22;;;9.92;100.00
49947;BME280;35839;48.662;13.300;2022-09-03T05:31:26;97215.28;;;9.95;100.00
49947;BME280;35839;48.662;13.300;2022-09-03T05:33:54;97210.38;;;9.92;100.00
49947;BME280;35839;48.662;13.300;2022-09-03T05:36:24;97216.59;;;9.91;100.00
49947;BME280;35839;48.662;13.300;2022-09-03T05:38:50;97223.44;;;10.10;100.00
49947;BME280;35839;48.662;13.300;2022-09-03T05:41:18;97217.81;;;10.23;100.00
49947;BME280;35839;48.662;13.300;2022-09-03T05:43:51;97213.47;;;10.49;100.00
49947;BME280;35839;48.662;13.300;2022-09-03T05:46:22;97218.91;;;10.56;100.00
49947;BME280;35839;48.662;13.300;2022-09-03T05:48:52;97224.09;;;10.74;100.00
49947;BME280;35839;48.662;13.300;2022-09-03T05:51:18;97223.69;;;10.87;100.00
49947;BME280;35839;48.662;13.300;2022-09-03T05:53:45;97215.72;;;11.05;100.00
49947;BME280;35839;48.662;13.300;2022-09-03T05:56:13;97222.91;;;11.37;100.00
49947;BME280;35839;48.662;13.300;2022-09-03T05:58:41;97221.94;;;11.38;100.00
49947;BME280;35839;48.662;13.300;2022-09-03T06:03:54;97226.41;;;11.62;100.00
49947;BME280;35839;48.662;13.300;2022-09-03T06:06:21;97227.75;;;11.66;100.00
49947;BME280;35839;48.662;13.300;2022-09-03T06:08:54;97226.78;;;11.75;100.00
49947;BME280;35839;48.662;13.300;2022-09-03T06:11:20;97217.63;;;11.79;100.00
49947;BME280;35839;48.662;13.300;2022-09-03T06:13:47;97227.81;;;11.99;100.00
49947;BME280;35839;48.662;13.300;2022-09-03T06:16:13;97225.38;;;12.06;100.00
49947;BME280;35839;48.662;13.300;2022-09-03T06:18:38;97229.16;;;12.28;100.00
49947;BME280;35839;48.662;13.300;2022-09-03T06:21:05;97222.91;;;12.37;100.00
49947;BME280;35839;48.662;13.300;2022-09-03T06:23:32;97215.03;;;12.45;100.00
49947;BME280;35839;48.662;13.300;2022-09-03T06:26:02;97214.16;;;12.61;100.00
49947;BME280;35839;48.662;13.300;2022-09-03T06:28:30;97211.19;;;12.80;100.00
49947;BME280;35839;48.662;13.300;2022-09-03T06:31:00;97218.22;;;12.88;100.00
49947;BME280;35839;48.662;13.300;2022-09-03T06:33:27;97210.00;;;12.99;100.00
49947;BME280;35839;48.662;13.300;2022-09-03T06:35:54;97208.81;;;13.02;100.00
49947;BME280;35839;48.662;13.300;2022-09-03T06:38:22;97211.91;;;13.14;100.00
49947;BME280;35839;48.662;13.300;2022-09-03T06:40:55;97213.34;;;13.24;100.00
49947;BME280;35839;48.662;13.300;2022-09-03T06:43:22;97214.94;;;13.42;100.00
49947;BME280;35839;48.662;13.300;2022-09-03T06:45:59;97212.50;;;13.40;100.00
49947;BME280;35839;48.662;13.300;2022-09-03T06:48:25;97217.03;;;13.55;100.00
49947;BME280;35839;48.662;13.300;2022-09-03T06:51:15;97219.66;;;13.55;100.00
49947;BME280;35839;48.662;13.300;2022-09-03T06:53:44;97223.00;;;13.72;100.00
49947;BME280;35839;48.662;13.300;2022-09-03T06:56:12;97217.16;;;13.84;100.00
49947;BME280;35839;48.662;13.300;2022-09-03T06:58:39;97215.16;;;14.09;100.00
49947;BME280;35839;48.662;13.300;2022-09-03T07:01:19;97215.00;;;14.11;100.00
49947;BME280;35839;48.662;13.300;2022-09-03T07:03:47;97220.84;;;14.21;100.00
49947;BME280;35839;48.662;13.300;2022-09-03T07:06:14;97216.09;;;14.40;100.00
49947;BME280;35839;48.662;13.300;2022-09-03T07:08:40;97211.72;;;14.47;100.00
49947;BME280;35839;48.662;13.300;2022-09-03T07:11:12;97206.72;;;14.60;100.00
49947;BME280;35839;48.662;13.300;2022-09-03T07:13:40;97211.06;;;14.68;100.00
49947;BME280;35839;48.662;13.300;2022-09-03T07:16:08;97217.25;;;14.75;100.00
49947;BME280;35839;48.662;13.300;2022-09-03T07:18:35;97215.47;;;14.90;100.00
49947;BME280;35839;48.662;13.300;2022-09-03T07:21:03;97218.47;;;15.02;100.00
49947;BME280;35839;48.662;13.300;2022-09-03T07:23:29;97215.81;;;15.02;100.00
49947;BME280;35839;48.662;13.300;2022-09-03T07:25:57;97213.63;;;15.06;100.00
49947;BME280;35839;48.662;13.300;2022-09-03T07:28:24;97214.19;;;15.16;100.00
49947;BME280;35839;48.662;13.300;2022-09-03T07:30:50;97217.34;;;15.26;100.00
49947;BME280;35839;48.662;13.300;2022-09-03T07:33:16;97222.63;;;15.41;100.00
49947;BME280;35839;48.662;13.300;2022-09-03T07:35:43;97221.00;;;15.62;100.00
49947;BME280;35839;48.662;13.300;2022-09-03T07:38:08;97224.13;;;15.65;100.00
49947;BME280;35839;48.662;13.300;2022-09-03T07:40:34;97223.84;;;15.75;100.00
49947;BME280;35839;48.662;13.300;2022-09-03T07:42:59;97227.44;;;15.89;100.00
49947;BME280;35839;48.662;13.300;2022-09-03T07:45:27;97235.13;;;16.05;100.00
49947;BME280;35839;48.662;13.300;2022-09-03T07:47:53;97231.97;;;16.16;100.00
49947;BME280;35839;48.662;13.300;2022-09-03T07:50:18;97232.06;;;16.23;98.37
49947;BME280;35839;48.662;13.300;2022-09-03T07:52:44;97249.75;;;16.29;95.04
49947;BME280;35839;48.662;13.300;2022-09-03T07:55:10;97250.09;;;16.41;97.10
49947;BME280;35839;48.662;13.300;2022-09-03T07:57:36;97251.78;;;16.49;94.07
49947;BME280;35839;48.662;13.300;2022-09-03T08:00:01;97252.78;;;16.76;90.78
49947;BME280;35839;48.662;13.300;2022-09-03T08:02:27;97257.03;;;16.70;93.34
49947;BME280;35839;48.662;13.300;2022-09-03T08:04:52;97260.44;;;16.64;91.54
49947;BME280;35839;48.662;13.300;2022-09-03T08:07:17;97259.84;;;16.69;91.29
49947;BME280;35839;48.662;13.300;2022-09-03T08:09:43;97256.16;;;16.84;91.34
49947;BME280;35839;48.662;13.300;2022-09-03T08:12:08;97255.00;;;16.94;89.41
49947;BME280;35839;48.662;13.300;2022-09-03T08:14:33;97257.97;;;17.12;90.77
49947;BME280;35839;48.662;13.300;2022-09-03T08:16:59;97260.19;;;17.15;85.71
49947;BME280;35839;48.662;13.300;2022-09-03T08:19:24;97267.41;;;17.28;85.19
49947;BME280;35839;48.662;13.300;2022-09-03T08:21:50;97258.97;;;17.46;86.56
49947;BME280;35839;48.662;13.300;2022-09-03T08:24:16;97255.94;;;17.56;84.90
49947;BME280;35839;48.662;13.300;2022-09-03T08:26:45;97270.06;;;17.69;83.71
49947;BME280;35839;48.662;13.300;2022-09-03T08:29:10;97270.91;;;17.77;83.48
49947;BME280;35839;48.662;13.300;2022-09-03T08:31:36;97274.84;;;17.94;82.38
49947;BME280;35839;48.662;13.300;2022-09-03T08:34:04;97282.16;;;17.92;79.58
49947;BME280;35839;48.662;13.300;2022-09-03T08:36:35;97275.47;;;17.96;78.13
49947;BME280;35839;48.662;13.300;2022-09-03T08:39:02;97274.28;;;18.05;79.98
49947;BME280;35839;48.662;13.300;2022-09-03T08:47:28;97274.19;;;17.85;79.25
49947;BME280;35839;48.662;13.300;2022-09-03T08:52:48;97268.66;;;18.82;77.44
49947;BME280;35839;48.662;13.300;2022-09-03T08:55:26;97259.91;;;18.81;74.91
49947;BME280;35839;48.662;13.300;2022-09-03T09:00:21;97263.72;;;18.52;75.83
49947;BME280;35839;48.662;13.300;2022-09-03T09:03:10;97256.78;;;18.64;76.80
49947;BME280;35839;48.662;13.300;2022-09-03T09:05:53;97254.75;;;18.60;77.46
49947;BME280;35839;48.662;13.300;2022-09-03T09:09:19;97263.56;;;18.80;76.78
49947;BME280;35839;48.662;13.300;2022-09-03T09:11:46;97262.94;;;18.91;77.82
49947;BME280;35839;48.662;13.300;2022-09-03T09:22:53;97251.88;;;19.14;77.81
49947;BME280;35839;48.662;13.300;2022-09-03T09:25:22;97254.44;;;19.41;76.27
49947;BME280;35839;48.662;13.300;2022-09-03T09:28:02;97261.56;;;19.54;71.84
49947;BME280;35839;48.662;13.300;2022-09-03T09:30:33;97261.50;;;19.74;68.74
49947;BME280;35839;48.662;13.300;2022-09-03T09:32:59;97261.94;;;20.09;69.17
49947;BME280;35839;48.662;13.300;2022-09-03T09:35:25;97268.72;;;20.05;67.41
49947;BME280;35839;48.662;13.300;2022-09-03T09:37:57;97258.69;;;20.39;72.43
49947;BME280;35839;48.662;13.300;2022-09-03T09:40:39;97260.94;;;20.42;67.96
49947;BME280;35839;48.662;13.300;2022-09-03T09:43:12;97261.06;;;20.79;68.00
49947;BME280;35839;48.662;13.300;2022-09-03T09:45:43;97256.34;;;20.81;69.25
49947;BME280;35839;48.662;13.300;2022-09-03T09:48:12;97260.75;;;20.94;68.21
49947;BME280;35839;48.662;13.300;2022-09-03T09:50:39;97263.09;;;20.52;69.29
49947;BME280;35839;48.662;13.300;2022-09-03T09:53:10;97261.34;;;20.39;69.29
49947;BME280;35839;48.662;13.300;2022-09-03T09:56:08;97261.84;;;20.54;68.31
49947;BME280;35839;48.662;13.300;2022-09-03T09:58:44;97254.88;;;20.60;72.41
49947;BME280;35839;48.662;13.300;2022-09-03T10:01:16;97257.78;;;20.58;69.89
49947;BME280;35839;48.662;13.300;2022-09-03T10:03:54;97256.19;;;20.76;71.81
49947;BME280;35839;48.662;13.300;2022-09-03T10:06:27;97258.59;;;21.02;67.08
49947;BME280;35839;48.662;13.300;2022-09-03T10:09:20;97255.81;;;21.34;64.09
49947;BME280;35839;48.662;13.300;2022-09-03T10:15:11;97237.53;;;21.75;66.47
49947;BME280;35839;48.662;13.300;2022-09-03T10:17:55;97245.44;;;22.12;64.81
49947;BME280;35839;48.662;13.300;2022-09-03T10:23:04;97245.19;;;22.32;64.63
49947;BME280;35839;48.662;13.300;2022-09-03T10:26:01;97242.19;;;22.09;60.69
49947;BME280;35839;48.662;13.300;2022-09-03T10:28:33;97240.25;;;22.17;64.63
49947;BME280;35839;48.662;13.300;2022-09-03T10:37:10;97243.38;;;22.67;60.98
49947;BME280;35839;48.662;13.300;2022-09-03T10:42:44;97233.66;;;22.61;59.24
49947;BME280;35839;48.662;13.300;2022-09-03T10:51:05;97228.06;;;22.98;61.73
49947;BME280;35839;48.662;13.300;2022-09-03T10:54:04;97232.50;;;23.28;57.63
49947;BME280;35839;48.662;13.300;2022-09-03T11:07:12;97221.59;;;23.98;55.81
49947;BME280;35839;48.662;13.300;2022-09-03T11:09:46;97217.19;;;23.75;54.53
49947;BME280;35839;48.662;13.300;2022-09-03T11:12:23;97217.50;;;23.79;55.20
49947;BME280;35839;48.662;13.300;2022-09-03T11:15:20;97217.41;;;24.03;55.99
49947;BME280;35839;48.662;13.300;2022-09-03T11:17:56;97216.59;;;24.02;53.62
49947;BME280;35839;48.662;13.300;2022-09-03T11:20:24;97212.09;;;24.36;54.46
49947;BME280;35839;48.662;13.300;2022-09-03T11:22:52;97202.38;;;24.30;55.18
49947;BME280;35839;48.662;13.300;2022-09-03T11:25:29;97212.28;;;24.80;52.33
49947;BME280;35839;48.662;13.300;2022-09-03T11:33:57;97204.06;;;24.87;55.02
49947;BME280;35839;48.662;13.300;2022-09-03T11:36:31;97199.38;;;25.16;50.67
49947;BME280;35839;48.662;13.300;2022-09-03T11:38:57;97201.09;;;25.06;51.66
49947;BME280;35839;48.662;13.300;2022-09-03T11:41:26;97198.97;;;24.86;52.74
49947;BME280;35839;48.662;13.300;2022-09-03T11:43:53;97202.84;;;24.95;52.96
49947;BME280;35839;48.662;13.300;2022-09-03T11:48:52;97213.69;;;25.05;51.18
49947;BME280;35839;48.662;13.300;2022-09-03T11:53:59;97205.09;;;25.20;53.02
49947;BME280;35839;48.662;13.300;2022-09-03T11:56:26;97201.56;;;25.36;51.05
49947;BME280;35839;48.662;13.300;2022-09-03T11:59:18;97199.50;;;25.43;50.13
49947;BME280;35839;48.662;13.300;2022-09-03T12:02:27;97193.25;;;24.60;53.18
49947;BME280;35839;48.662;13.300;2022-09-03T12:05:06;97202.84;;;24.10;52.46
49947;BME280;35839;48.662;13.300;2022-09-03T12:07:57;97200.19;;;23.98;52.00
49947;BME280;35839;48.662;13.300;2022-09-03T12:13:16;97197.03;;;24.47;52.53
49947;BME280;35839;48.662;13.300;2022-09-03T12:16:05;97193.47;;;24.25;52.69
49947;BME280;35839;48.662;13.300;2022-09-03T12:18:35;97199.53;;;23.91;54.86
49947;BME280;35839;48.662;13.300;2022-09-03T12:21:04;97196.22;;;23.72;52.54
49947;BME280;35839;48.662;13.300;2022-09-03T12:23:45;97196.66;;;23.52;56.47
49947;BME280;35839;48.662;13.300;2022-09-03T12:26:17;97204.38;;;23.37;54.12
49947;BME280;35839;48.662;13.300;2022-09-03T12:28:49;97198.69;;;23.33;55.27
49947;BME280;35839;48.662;13.300;2022-09-03T12:31:19;97203.47;;;23.20;54.36
49947;BME280;35839;48.662;13.300;2022-09-03T12:33:51;97201.00;;;23.30;52.90
49947;BME280;35839;48.662;13.300;2022-09-03T12:36:21;97201.38;;;23.10;53.75
49947;BME280;35839;48.662;13.300;2022-09-03T12:38:48;97205.81;;;23.04;53.37
49947;BME280;35839;48.662;13.300;2022-09-03T12:41:28;97202.31;;;22.80;55.57
49947;BME280;35839;48.662;13.300;2022-09-03T12:43:58;97197.59;;;23.46;58.40
49947;BME280;35839;48.662;13.300;2022-09-03T12:46:26;97197.50;;;23.41;54.79
49947;BME280;35839;48.662;13.300;2022-09-03T12:48:59;97189.41;;;23.36;56.67
49947;BME280;35839;48.662;13.300;2022-09-03T12:51:37;97192.00;;;23.60;52.12
49947;BME280;35839;48.662;13.300;2022-09-03T12:54:05;97191.50;;;23.74;54.76
49947;BME280;35839;48.662;13.300;2022-09-03T12:56:35;97187.69;;;23.18;55.37
49947;BME280;35839;48.662;13.300;2022-09-03T12:59:07;97180.91;;;23.39;55.37
49947;BME280;35839;48.662;13.300;2022-09-03T13:01:44;97169.72;;;23.42;53.41
49947;BME280;35839;48.662;13.300;2022-09-03T13:04:15;97175.63;;;23.16;51.33
49947;BME280;35839;48.662;13.300;2022-09-03T13:06:51;97168.72;;;23.31;55.18
49947;BME280;35839;48.662;13.300;2022-09-03T13:09:23;97167.06;;;23.42;56.71
49947;BME280;35839;48.662;13.300;2022-09-03T13:11:50;97173.63;;;23.23;54.32
49947;BME280;35839;48.662;13.300;2022-09-03T13:14:20;97167.63;;;23.04;55.05
49947;BME280;35839;48.662;13.300;2022-09-03T13:41:06;97145.69;;;25.06;49.99
49947;BME280;35839;48.662;13.300;2022-09-03T13:43:40;97145.13;;;24.65;49.38
49947;BME280;35839;48.662;13.300;2022-09-03T13:46:12;97144.41;;;24.92;50.04
49947;BME280;35839;48.662;13.300;2022-09-03T13:48:42;97144.00;;;25.00;48.70
49947;BME280;35839;48.662;13.300;2022-09-03T13:51:30;97142.78;;;25.30;51.15
49947;BME280;35839;48.662;13.300;2022-09-03T13:59:09;97139.94;;;27.71;44.45
49947;BME280;35839;48.662;13.300;2022-09-03T14:01:54;97135.19;;;27.20;43.54
49947;BME280;35839;48.662;13.300;2022-09-03T14:05:08;97137.81;;;26.57;46.05
49947;BME280;35839;48.662;13.300;2022-09-03T14:08:01;97130.41;;;25.78;46.49
49947;BME280;35839;48.662;13.300;2022-09-03T14:13:41;97130.94;;;25.03;50.86
49947;BME280;35839;48.662;13.300;2022-09-03T14:21:53;97137.34;;;24.47;52.89
49947;BME280;35839;48.662;13.300;2022-09-03T14:27:11;97127.59;;;24.74;55.40
49947;BME280;35839;48.662;13.300;2022-09-03T14:29:37;97128.44;;;24.58;55.16
49947;BME280;35839;48.662;13.300;2022-09-03T14:32:17;97136.38;;;24.19;57.11
49947;BME280;35839;48.662;13.300;2022-09-03T14:40:39;97136.31;;;23.56;61.53
49947;BME280;35839;48.662;13.300;2022-09-03T14:45:56;97126.56;;;23.62;55.85
49947;BME280;35839;48.662;13.300;2022-09-03T15:00:14;97138.91;;;23.51;63.54
49947;BME280;35839;48.662;13.300;2022-09-03T15:14:13;97134.75;;;24.35;56.61
49947;BME280;35839;48.662;13.300;2022-09-03T15:19:54;97138.38;;;24.12;60.47
49947;BME280;35839;48.662;13.300;2022-09-03T15:25:54;97143.44;;;24.08;59.66
49947;BME280;35839;48.662;13.300;2022-09-03T15:31:21;97135.94;;;23.93;60.34
49947;BME280;35839;48.662;13.300;2022-09-03T15:34:26;97141.50;;;23.75;63.50
49947;BME280;35839;48.662;13.300;2022-09-03T15:36:57;97136.53;;;23.38;60.91
49947;BME280;35839;48.662;13.300;2022-09-03T15:39:32;97144.84;;;23.13;64.39
49947;BME280;35839;48.662;13.300;2022-09-03T15:42:03;97146.84;;;22.94;65.23
49947;BME280;35839;48.662;13.300;2022-09-03T15:44:38;97143.13;;;22.83;66.68
49947;BME280;35839;48.662;13.300;2022-09-03T15:47:11;97146.03;;;22.82;66.35
49947;BME280;35839;48.662;13.300;2022-09-03T15:59:17;97148.84;;;25.20;57.88
49947;BME280;35839;48.662;13.300;2022-09-03T16:01:55;97147.78;;;24.14;65.10
49947;BME280;35839;48.662;13.300;2022-09-03T16:12:46;97155.09;;;22.81;70.46
49947;BME280;35839;48.662;13.300;2022-09-03T16:15:28;97155.78;;;22.41;73.43
49947;BME280;35839;48.662;13.300;2022-09-03T16:20:53;97144.16;;;21.81;79.37
49947;BME280;35839;48.662;13.300;2022-09-03T16:23:31;97149.28;;;21.53;78.65
49947;BME280;35839;48.662;13.300;2022-09-03T16:26:05;97154.63;;;21.34;79.67
49947;BME280;35839;48.662;13.300;2022-09-03T16:28:36;97158.63;;;21.43;77.87
49947;BME280;35839;48.662;13.300;2022-09-03T16:39:10;97164.84;;;20.82;86.78
49947;BME280;35839;48.662;13.300;2022-09-03T16:41:46;97169.25;;;20.70;86.65
49947;BME280;35839;48.662;13.300;2022-09-03T16:44:43;97170.16;;;20.63;90.57
49947;BME280;35839;48.662;13.300;2022-09-03T17:04:02;97177.81;;;20.72;83.21
49947;BME280;35839;48.662;13.300;2022-09-03T17:09:37;97175.66;;;20.37;90.69
49947;BME280;35839;48.662;13.300;2022-09-03T17:15:15;97172.69;;;20.27;92.48
49947;BME280;35839;48.662;13.300;2022-09-03T17:36:23;97176.97;;;19.57;100.00
49947;BME280;35839;48.662;13.300;2022-09-03T17:49:27;97178.72;;;19.32;100.00
49947;BME280;35839;48.662;13.300;2022-09-03T17:51:59;97178.16;;;19.23;100.00
49947;BME280;35839;48.662;13.300;2022-09-03T17:54:40;97172.66;;;19.18;100.00
49947;BME280;35839;48.662;13.300;2022-09-03T18:00:04;97189.00;;;19.08;100.00
49947;BME280;35839;48.662;13.300;2022-09-03T18:05:23;97198.41;;;19.11;100.00
49947;BME280;35839;48.662;13.300;2022-09-03T18:08:04;97212.28;;;19.13;100.00
49947;BME280;35839;48.662;13.300;2022-09-03T18:10:42;97214.38;;;18.98;100.00
49947;BME280;35839;48.662;13.300;2022-09-03T18:15:47;97210.88;;;18.97;100.00
49947;BME280;35839;48.662;13.300;2022-09-03T18:18:25;97206.22;;;18.72;100.00
49947;BME280;35839;48.662;13.300;2022-09-03T18:20:53;97206.03;;;18.61;100.00
49947;BME280;35839;48.662;13.300;2022-09-03T18:26:56;97196.25;;;18.35;100.00
49947;BME280;35839;48.662;13.300;2022-09-03T18:29:49;97171.97;;;17.98;100.00
49947;BME280;35839;48.662;13.300;2022-09-03T18:32:37;97201.28;;;17.96;100.00
49947;BME280;35839;48.662;13.300;2022-09-03T18:35:23;97200.00;;;17.79;100.00
49947;BME280;35839;48.662;13.300;2022-09-03T18:38:08;97208.19;;;17.84;100.00
49947;BME280;35839;48.662;13.300;2022-09-03T18:40:56;97221.56;;;17.62;100.00
49947;BME280;35839;48.662;13.300;2022-09-03T18:43:52;97228.22;;;17.52;100.00
49947;BME280;35839;48.662;13.300;2022-09-03T18:50:17;97238.28;;;17.69;100.00
49947;BME280;35839;48.662;13.300;2022-09-03T18:53:07;97243.63;;;17.83;100.00
49947;BME280;35839;48.662;13.300;2022-09-03T19:01:40;97266.91;;;17.53;100.00
49947;BME280;35839;48.662;13.300;2022-09-03T19:07:46;97270.81;;;17.57;100.00
49947;BME280;35839;48.662;13.300;2022-09-03T19:13:43;97278.09;;;17.48;100.00
49947;BME280;35839;48.662;13.300;2022-09-03T19:16:47;97285.13;;;17.27;100.00
49947;BME280;35839;48.662;13.300;2022-09-03T19:20:02;97300.28;;;17.12;100.00
49947;BME280;35839;48.662;13.300;2022-09-03T19:22:47;97309.47;;;17.16;100.00
49947;BME280;35839;48.662;13.300;2022-09-03T19:25:31;97308.03;;;17.14;100.00
49947;BME280;35839;48.662;13.300;2022-09-03T19:28:19;97316.16;;;17.12;100.00
49947;BME280;35839;48.662;13.300;2022-09-03T19:34:45;97329.25;;;17.20;100.00
49947;BME280;35839;48.662;13.300;2022-09-03T19:41:20;97327.78;;;17.46;100.00
49947;BME280;35839;48.662;13.300;2022-09-03T19:47:07;97336.56;;;17.88;100.00
49947;BME280;35839;48.662;13.300;2022-09-03T19:53:00;97347.22;;;18.08;100.00
49947;BME280;35839;48.662;13.300;2022-09-03T19:55:48;97353.53;;;18.00;100.00
49947;BME280;35839;48.662;13.300;2022-09-03T19:58:37;97357.78;;;17.88;100.00
49947;BME280;35839;48.662;13.300;2022-09-03T20:01:24;97351.66;;;17.94;100.00
49947;BME280;35839;48.662;13.300;2022-09-03T20:04:14;97349.84;;;18.01;100.00
49947;BME280;35839;48.662;13.300;2022-09-03T20:07:00;97347.63;;;18.05;100.00
49947;BME280;35839;48.662;13.300;2022-09-03T20:09:46;97354.53;;;17.99;100.00
49947;BME280;35839;48.662;13.300;2022-09-03T20:12:34;97357.63;;;18.03;100.00
49947;BME280;35839;48.662;13.300;2022-09-03T20:15:07;97353.53;;;18.00;100.00
49947;BME280;35839;48.662;13.300;2022-09-03T20:20:39;97367.97;;;17.91;100.00
49947;BME280;35839;48.662;13.300;2022-09-03T20:31:19;97366.97;;;17.64;100.00
49947;BME280;35839;48.662;13.300;2022-09-03T20:44:37;97380.63;;;17.33;100.00
49947;BME280;35839;48.662;13.300;2022-09-03T20:55:49;97390.34;;;17.25;100.00
49947;BME280;35839;48.662;13.300;2022-09-03T20:58:37;97396.06;;;17.29;100.00
49947;BME280;35839;48.662;13.300;2022-09-03T21:01:09;97404.22;;;17.27;100.00
49947;BME280;35839;48.662;13.300;2022-09-03T21:03:49;97399.78;;;17.13;100.00
49947;BME280;35839;48.662;13.300;2022-09-03T21:09:24;97407.72;;;17.13;100.00
49947;BME280;35839;48.662;13.300;2022-09-03T21:12:01;97398.06;;;17.20;100.00
49947;BME280;35839;48.662;13.300;2022-09-03T21:14:57;97401.50;;;17.21;100.00
49947;BME280;35839;48.662;13.300;2022-09-03T21:17:40;97400.53;;;17.28;100.00
49947;BME280;35839;48.662;13.300;2022-09-03T21:20:21;97392.75;;;17.20;100.00
49947;BME280;35839;48.662;13.300;2022-09-03T21:23:09;97406.59;;;17.22;100.00
49947;BME280;35839;48.662;13.300;2022-09-03T21:25:39;97400.41;;;17.09;100.00
49947;BME280;35839;48.662;13.300;2022-09-03T21:28:16;97406.63;;;17.01;100.00
49947;BME280;35839;48.662;13.300;2022-09-03T21:30:47;97405.28;;;17.12;100.00
49947;BME280;35839;48.662;13.300;2022-09-03T21:33:19;97409.19;;;16.94;100.00
49947;BME280;35839;48.662;13.300;2022-09-03T21:35:57;97419.31;;;16.69;100.00
49947;BME280;35839;48.662;13.300;2022-09-03T21:38:30;97418.47;;;16.83;100.00
49947;BME280;35839;48.662;13.300;2022-09-03T21:41:10;97415.56;;;16.78;100.00
49947;BME280;35839;48.662;13.300;2022-09-03T21:46:26;97413.69;;;16.94;100.00
49947;BME280;35839;48.662;13.300;2022-09-03T21:48:57;97417.53;;;16.91;100.00
49947;BME280;35839;48.662;13.300;2022-09-03T21:51:29;97416.47;;;16.85;100.00
49947;BME280;35839;48.662;13.300;2022-09-03T21:54:16;97415.56;;;16.78;100.00
49947;BME280;35839;48.662;13.300;2022-09-03T22:02:19;97414.66;;;16.71;100.00
49947;BME280;35839;48.662;13.300;2022-09-03T22:04:48;97420.84;;;16.78;100.00
49947;BME280;35839;48.662;13.300;2022-09-03T22:10:15;97417.22;;;16.79;100.00
49947;BME280;35839;48.662;13.300;2022-09-03T22:12:48;97426.50;;;16.75;100.00
49947;BME280;35839;48.662;13.300;2022-09-03T22:15:17;97426.63;;;16.67;100.00
49947;BME280;35839;48.662;13.300;2022-09-03T22:17:50;97431.53;;;16.70;100.00
49947;BME280;35839;48.662;13.300;2022-09-03T22:20:20;97426.88;;;16.72;100.00
49947;BME280;35839;48.662;13.300;2022-09-03T22:23:03;97428.78;;;16.78;100.00
49947;BME280;35839;48.662;13.300;2022-09-03T22:25:49;97430.00;;;16.61;100.00
